METAR Data
IDs: Format: Raw Decoded Include TAF

Data at: 0437 UTC 26 Sep 2018

K7BM 260430Z AUTO 12008KT 10SM CLR 05/M02 A3046 RMK AO2
K7BM 260406Z AUTO 13005KT 10SM CLR 06/M02 A3046 RMK AO2
K7BM 260347Z AUTO 12006KT 10SM CLR 06/M02 A3045 RMK AO2
K7BM 260330Z AUTO 13008KT 10SM CLR 06/M02 A3045 RMK AO2 LTG DSNT S
K7BM 260306Z AUTO 13008KT 10SM CLR 06/M02 A3044 RMK AO2
K7BM 260248Z AUTO 11006KT 10SM CLR 07/M02 A3043 RMK AO2
K7BM 260230Z AUTO 12004KT 10SM CLR 07/M02 A3042 RMK AO2
K7BM 260206Z AUTO 00000KT 10SM CLR 08/M04 A3041 RMK AO2
K7BM 260148Z AUTO 13011KT 10SM CLR 08/M07 A3039 RMK AO2
K7BM 260130Z AUTO 36004KT 10SM CLR 11/M28 A3037 RMK AO2
K7BM 260106Z AUTO 32004KT 10SM CLR 12/M30 A3036 RMK AO2
K7BM 260048Z AUTO 31007KT 260V350 10SM CLR 13/M33 A3035 RMK AO2
K7BM 260030Z AUTO 27007G18KT 10SM CLR 13/M37 A3035 RMK AO2
K7BM 260006Z AUTO 28006G18KT 240V310 10SM CLR 15/M42 A3034 RMK AO2 LTG DSNT S
K7BM 252348Z AUTO 24014G22KT 10SM CLR 15/ A3033 RMK AO2
K7BM 252330Z AUTO 26008G18KT 10SM CLR 16/M43 A3033 RMK AO2
K7BM 252306Z AUTO 24006G18KT 10SM CLR 16/ A3033 RMK AO2
K7BM 252248Z AUTO 27012G29KT 210V290 10SM CLR 16/ A3033 RMK AO2
K7BM 252230Z AUTO 25012G24KT 230V320 10SM CLR 16/M44 A3033 RMK AO2
K7BM 252206Z AUTO 01007KT 10SM CLR 17/M32 A3031 RMK AO2
K7BM 252147Z AUTO 31003G21KT 10SM CLR 16/M33 A3031 RMK AO2
K7BM 252130Z AUTO 24016G22KT 10SM CLR 16/M32 A3032 RMK AO2
K7BM 252106Z AUTO 00000KT 10SM CLR 17/M27 A3033 RMK AO2
K7BM 252048Z AUTO 22007KT 10SM CLR 18/M29 A3033 RMK AO2
K7BM 252030Z AUTO 01007G18KT 10SM CLR 16/M26 A3031 RMK AO2
K7BM 252006Z AUTO 36004KT 10SM CLR 17/M27 A3032 RMK AO2
K7BM 251948Z AUTO 27006G17KT 10SM CLR 17/M27 A3033 RMK AO2 LTG DSNT NE
K7BM 251930Z AUTO 00000KT 10SM CLR 18/M25 A3033 RMK AO2
K7BM 251906Z AUTO 02007G15KT 10SM CLR 16/M25 A3034 RMK AO2
K7BM 251848Z AUTO 00000KT 10SM CLR 16/M21 A3035 RMK AO2
K7BM 251830Z AUTO 28003KT 10SM CLR 15/M15 A3035 RMK AO2
K7BM 251806Z AUTO 22004KT 10SM CLR 15/M17 A3036 RMK AO2
K7BM 251748Z AUTO 00000KT 10SM CLR 14/M15 A3036 RMK AO2
K7BM 251730Z AUTO 34004KT 10SM CLR 13/M15 A3035 RMK AO2
K7BM 251706Z AUTO 12006KT 100V180 10SM CLR 13/M12 A3036 RMK AO2
K7BM 251648Z AUTO 11007KT 10SM CLR 13/M11 A3037 RMK AO2
K7BM 251630Z AUTO 14007KT 10SM CLR 11/M11 A3036 RMK AO2
K7BM 251606Z AUTO 16009G17KT 10SM CLR 10/M08 A3036 RMK AO2
K7BM 251547Z AUTO 16008G14KT 10SM CLR 09/M08 A3035 RMK AO2
K7BM 251530Z AUTO 14008KT 10SM CLR 09/M07 A3035 RMK AO2
K7BM 251506Z AUTO 13004KT 10SM CLR 08/M07 A3035 RMK AO2
K7BM 251449Z AUTO 14005KT 10SM CLR 08/M08 A3035 RMK AO2
K7BM 251431Z AUTO 13004KT 10SM CLR 08/M07 A3034 RMK AO2
K7BM 251406Z AUTO 13003KT 10SM CLR 07/M07 A3034 RMK AO2
K7BM 251347Z AUTO 00000KT 10SM CLR 06/M07 A3034 RMK AO2
K7BM 251329Z AUTO 15004KT 10SM CLR 05/M07 A3033 RMK AO2
K7BM 251311Z AUTO 29004KT 10SM CLR 06/M08 A3033 RMK AO2
K7BM 251248Z AUTO 31005KT 10SM CLR 05/M08 A3031 RMK AO2
K7BM 251230Z AUTO 31006KT 10SM CLR 05/M08 A3031 RMK AO2
K7BM 251206Z AUTO 31005KT 10SM CLR 05/M07 A3030 RMK AO2
K7BM 251148Z AUTO 35004KT 10SM CLR 05/M07 A3029 RMK AO2
K7BM 251130Z AUTO 34004KT 10SM CLR 06/M07 A3029 RMK AO2
K7BM 251106Z AUTO 35005KT 10SM CLR 06/M06 A3029 RMK AO2
K7BM 251048Z AUTO 34006KT 10SM CLR 06/M06 A3028 RMK AO2
K7BM 251030Z AUTO 32006KT 10SM CLR 07/M05 A3028 RMK AO2
K7BM 251006Z AUTO 33004KT 10SM CLR 07/M05 A3027 RMK AO2
K7BM 250948Z AUTO 33005KT 10SM CLR 07/M05 A3027 RMK AO2
K7BM 250930Z AUTO 30006KT 10SM CLR 07/M05 A3026 RMK AO2
K7BM 250906Z AUTO 32007KT 290V360 10SM CLR 07/M05 A3026 RMK AO2
K7BM 250850Z AUTO 31006KT 10SM CLR 08/M04 A3026 RMK AO2
K7BM 250826Z AUTO 31005KT 10SM CLR 08/M04 A3026 RMK AO2
K7BM 250808Z AUTO 31007KT 10SM CLR 08/M03 A3026 RMK AO2
K7BM 250748Z AUTO 34003KT 10SM CLR 08/M03 A3026 RMK AO2
K7BM 250730Z AUTO 31004KT 10SM CLR 10/M03 A3025 RMK AO2 LTG DSNT NE
K7BM 250706Z AUTO 29011G18KT 250V310 10SM CLR 10/M03 A3025 RMK AO2
K7BM 250648Z AUTO 28007KT 10SM SCT075 SCT090 10/M02 A3026 RMK AO2 LTG DSNT NE
K7BM 250630Z AUTO 00000KT 10SM SCT075 BKN090 10/M01 A3026 RMK AO2
K7BM 250606Z AUTO 00000KT 10SM SCT090 10/M01 A3026 RMK AO2
K7BM 250548Z AUTO 09005KT 10SM CLR 11/00 A3026 RMK AO2
K7BM 250530Z AUTO 11003KT 10SM CLR 10/00 A3026 RMK AO2 LTG DSNT NE
K7BM 250506Z AUTO 07003KT 10SM SCT055 SCT065 SCT080 10/00 A3025 RMK AO2
K7BM 250448Z AUTO 15005KT 10SM -DZ SCT036 SCT055 BKN080 10/00 A3025 RMK AO2
K7BM 250430Z AUTO 00000KT 10SM SCT080 BKN100 10/00 A3025 RMK AO2
K7BM 250406Z AUTO 24008KT 10SM -RA SCT047 SCT070 BKN080 11/00 A3025 RMK AO2
K7BM 250347Z AUTO 23006G18KT 190V280 10SM SCT049 SCT070 SCT100 11/00 A3026 RMK AO2
K7BM 250330Z AUTO 23009KT 10SM SCT070 SCT090 11/00 A3026 RMK AO2
K7BM 250306Z AUTO 04003KT 10SM SCT050 SCT065 SCT080 11/00 A3025 RMK AO2
K7BM 250247Z AUTO 27006G17KT 10SM SCT065 BKN080 10/00 A3025 RMK AO2
K7BM 250229Z AUTO 24010G16KT 10SM SCT026 SCT060 SCT080 10/01 A3024 RMK AO2
K7BM 250206Z AUTO 22010G28KT 7SM -RA SCT026 SCT043 BKN070 09/02 A3024 RMK AO2
K7BM 250148Z AUTO 16008KT 10SM SCT070 SCT085 10/00 A3023 RMK AO2
K7BM 250130Z AUTO 17006KT 120V190 10SM CLR 10/01 A3023 RMK AO2
K7BM 250106Z AUTO 14003KT 10SM SCT060 SCT070 SCT085 11/00 A3023 RMK AO2
K7BM 250048Z AUTO 00000KT 10SM CLR 10/01 A3023 RMK AO2
K7BM 250030Z AUTO 26003KT 10SM CLR 10/02 A3022 RMK AO2
K7BM 250006Z AUTO 29009G25KT 10SM SCT026 SCT037 BKN085 10/02 A3022 RMK AO2
K7BM 242348Z AUTO 32008G15KT 260V010 10SM DZ SCT036 SCT048 BKN060 11/02 A3024 RMK AO2 LTG DSNT NW
K7BM 242330Z AUTO 23010G19KT 170V240 10SM SCT055 SCT090 12/00 A3024 RMK AO2 LTG DSNT S
K7BM 242306Z AUTO 26005KT 10SM SCT070 SCT080 12/03 A3021 RMK AO2
K7BM 242248Z AUTO 31008G30KT 270V010 7SM SCT020 SCT031 BKN047 10/05 A3021 RMK AO2 LTG DSNT NE
K7BM 242230Z AUTO 27010G26KT 230V310 10SM -RA SCT027 SCT042 BKN065 12/01 A3022 RMK AO2
K7BM 242206Z AUTO 21014G29KT 160V240 10SM -TSDZ SCT026 SCT040 BKN070 13/00 A3020 RMK AO2 LTG DSNT SW
K7BM 242148Z AUTO 23012G20KT 200V310 10SM CLR 15/00 A3020 RMK AO2 LTG DSNT SW
K7BM 242130Z AUTO 23021G29KT 10SM TS CLR 14/M01 A3020 RMK AO2 LTG DSNT N AND SW
K7BM 242106Z AUTO 27009G16KT 230V090 10SM CLR 15/00 A3020 RMK AO2
K7BM 242048Z AUTO 28007KT 210V360 10SM SCT050 15/00 A3021 RMK AO2
K7BM 242030Z AUTO 27009G24KT 230V010 10SM SCT050 13/00 A3023 RMK AO2
K7BM 242006Z AUTO 32006G14KT 10SM SCT035 SCT044 SCT050 13/02 A3022 RMK AO2 LTG DSNT NW
K7BM 241948Z AUTO 30005KT 10SM SCT035 BKN043 BKN050 12/02 A3024 RMK AO2
K7BM 241930Z AUTO 26013G25KT 10SM -RA SCT030 BKN044 OVC065 12/00 A3025 RMK AO2 LTG DSNT N
K7BM 241906Z AUTO 27007G28KT 230V300 10SM SCT026 SCT065 SCT080 15/M02 A3022 RMK AO2 LTG DSNT W
K7BM 241848Z AUTO 24020G26KT 10SM CLR 15/M02 A3021 RMK AO2
K7BM 241830Z AUTO 25015G25KT 180V280 10SM CLR 15/M01 A3023 RMK AO2 LTG DSNT W
K7BM 241806Z AUTO 28012G24KT 10SM CLR 12/00 A3025 RMK AO2 LTG DSNT W
K7BM 241748Z AUTO 28012G22KT 240V310 10SM SCT018 SCT031 BKN060 10/03 A3027 RMK AO2
K7BM 241730Z AUTO 30014G39KT 250V330 2 1/2SM -RA SCT014 BKN043 OVC050 08/03 A3029 RMK AO2 LTG DSNT NE
K7BM 241706Z AUTO 24013G29KT 210V270 10SM SCT044 SCT050 15/M04 A3023 RMK AO2
K7BM 241648Z AUTO 26020G31KT 230V290 10SM CLR 15/M03 A3024 RMK AO2